Time;durP1;ratioP1;P1;durP2;ratioP2;P2;SDS_P1;SDS_P2;PMS_P1;PMS_P2;Temp;Humidity;BMP_temperature;BMP_pressure;BME280_temperature;BME280_humidity;BME280_pressure;Samples;Min_cycle;Max_cycle;Signal;HPM_P1;HPM_P2
2020/12/16 00:01:18;;;;;;;18.80;11.15;;;8.00;99.90;;;;;;4933258;29;20181;-54
2020/12/16 00:03:45;;;;;;;16.42;9.45;;;8.00;99.90;;;;;;4933526;29;20713;-50
2020/12/16 00:06:12;;;;;;;16.60;11.20;;;7.90;99.90;;;;;;4933396;29;20724;-50
2020/12/16 00:08:39;;;;;;;16.42;9.32;;;8.00;99.90;;;;;;4933414;29;20217;-51
2020/12/16 00:11:06;;;;;;;19.92;11.48;;;8.00;99.90;;;;;;4933295;29;20231;-50
2020/12/16 00:13:34;;;;;;;14.65;9.55;;;8.10;99.90;;;;;;4933638;29;20185;-54
2020/12/16 00:16:01;;;;;;;14.93;10.55;;;8.10;99.90;;;;;;4933240;29;20223;-50
2020/12/16 00:18:29;;;;;;;19.20;11.95;;;8.20;99.90;;;;;;4934221;29;20196;-56
2020/12/16 00:20:56;;;;;;;14.23;9.52;;;8.10;99.90;;;;;;4934524;29;20535;-52
2020/12/16 00:23:23;;;;;;;21.02;10.60;;;8.10;99.90;;;;;;4933630;29;20208;-56
2020/12/16 00:25:50;;;;;;;12.75;9.50;;;8.10;99.90;;;;;;4936959;29;20623;-54
2020/12/16 00:28:17;;;;;;;13.52;9.00;;;8.10;99.90;;;;;;4936936;29;20201;-56
2020/12/16 00:30:47;;;;;;;12.75;10.23;;;8.20;99.90;;;;;;4936593;29;20177;-53
2020/12/16 00:33:15;;;;;;;13.80;10.75;;;8.10;99.90;;;;;;4936723;29;20199;-53
2020/12/16 00:35:43;;;;;;;21.02;10.70;;;8.10;99.90;;;;;;4936345;29;20220;-53
2020/12/16 00:38:11;;;;;;;18.83;10.05;;;8.20;99.90;;;;;;4936981;29;20193;-51
2020/12/16 00:40:39;;;;;;;14.43;9.07;;;8.20;99.90;;;;;;4936395;29;20577;-54
2020/12/16 00:43:06;;;;;;;18.63;11.85;;;8.20;99.90;;;;;;4936207;29;20675;-55
2020/12/16 00:45:33;;;;;;;13.85;9.15;;;8.30;99.90;;;;;;4936402;29;20231;-56
2020/12/16 00:48:01;;;;;;;15.80;9.40;;;8.30;99.90;;;;;;4936561;29;20283;-53
2020/12/16 00:53:03;;;;;;;14.35;9.73;;;8.30;99.90;;;;;;4951995;29;20323;-45
2020/12/16 00:55:36;;;;;;;11.70;8.02;;;8.40;99.90;;;;;;4945561;28;20218;-47
2020/12/16 00:58:04;;;;;;;20.60;12.15;;;8.40;99.90;;;;;;4974469;28;20190;-47
2020/12/16 01:00:37;;;;;;;14.30;7.72;;;8.40;99.90;;;;;;4956998;28;20708;-48
2020/12/16 01:03:08;;;;;;;12.27;8.70;;;8.40;99.90;;;;;;4956886;28;20302;-52
2020/12/16 01:05:36;;;;;;;16.20;10.32;;;8.40;99.90;;;;;;4957022;28;20215;-50
2020/12/16 01:08:03;;;;;;;19.23;10.18;;;8.40;99.90;;;;;;4974224;28;20238;-55
2020/12/16 01:10:31;;;;;;;19.75;11.02;;;8.40;99.90;;;;;;4973766;28;20262;-56
2020/12/16 01:13:00;;;;;;;14.00;9.30;;;8.30;99.90;;;;;;4956685;28;20195;-55
2020/12/16 01:15:30;;;;;;;18.85;10.10;;;8.30;99.90;;;;;;4956656;28;20215;-55
2020/12/16 01:18:02;;;;;;;18.45;11.23;;;8.30;99.90;;;;;;4956666;28;20683;-52
2020/12/16 01:20:39;;;;;;;15.77;9.25;;;8.30;99.90;;;;;;4974375;28;20206;-53
2020/12/16 01:23:37;;;;;;;11.98;7.47;;;8.30;99.90;;;;;;4963446;28;20298;-56
2020/12/16 01:26:05;;;;;;;13.38;10.07;;;8.20;99.90;;;;;;4974701;28;20216;-54
2020/12/16 01:28:39;;;;;;;14.25;8.98;;;8.20;99.90;;;;;;4956936;28;20229;-53
2020/12/16 01:31:10;;;;;;;16.05;10.27;;;8.20;99.90;;;;;;4957247;28;20731;-55
2020/12/16 01:33:37;;;;;;;16.00;9.20;;;8.30;99.90;;;;;;4957061;28;20214;-53
2020/12/16 01:36:15;;;;;;;11.88;8.43;;;8.30;99.90;;;;;;4955582;28;20219;-57
2020/12/16 01:38:43;;;;;;;13.15;8.43;;;8.30;99.90;;;;;;4956003;28;20196;-58
2020/12/16 01:41:13;;;;;;;14.38;9.05;;;8.30;99.90;;;;;;4955890;28;20195;-51
2020/12/16 01:43:47;;;;;;;14.73;9.70;;;8.20;99.90;;;;;;4973494;28;20633;-51
2020/12/16 01:46:18;;;;;;;15.27;9.85;;;8.30;99.90;;;;;;4956112;28;20748;-53
2020/12/16 01:48:46;;;;;;;12.77;8.77;;;8.30;99.90;;;;;;4973525;28;20180;-58
2020/12/16 01:51:18;;;;;;;13.82;9.38;;;8.30;99.90;;;;;;4972904;28;20195;-53
2020/12/16 01:53:52;;;;;;;17.08;9.63;;;8.30;99.90;;;;;;4955423;28;20254;-57
2020/12/16 01:56:23;;;;;;;15.88;8.43;;;8.50;99.90;;;;;;4955835;28;20722;-56
2020/12/16 01:59:02;;;;;;;16.17;8.95;;;8.50;99.90;;;;;;4956114;28;20206;-57
2020/12/16 02:01:35;;;;;;;16.08;10.52;;;8.40;99.90;;;;;;4956072;28;20575;-53
2020/12/16 02:04:06;;;;;;;18.63;9.07;;;8.40;99.90;;;;;;4955835;28;20299;-57
2020/12/16 02:06:37;;;;;;;17.23;9.23;;;8.40;99.90;;;;;;4956201;28;20222;-53
2020/12/16 02:09:07;;;;;;;16.08;9.15;;;8.40;99.90;;;;;;4974262;28;20200;-53
2020/12/16 02:11:41;;;;;;;13.02;8.07;;;8.40;99.90;;;;;;4956058;28;20206;-54
2020/12/16 02:14:21;;;;;;;16.75;10.50;;;8.40;99.90;;;;;;4956300;28;20195;-54
2020/12/16 02:16:53;;;;;;;21.05;10.27;;;8.40;99.90;;;;;;4956737;28;20243;-54
2020/12/16 02:19:23;;;;;;;16.05;9.45;;;8.50;99.90;;;;;;4956252;28;20200;-57
2020/12/16 02:22:03;;;;;;;9.82;8.80;;;8.40;99.90;;;;;;4955679;28;20290;-48
2020/12/16 02:24:33;;;;;;;12.05;8.52;;;8.50;99.90;;;;;;4955479;28;20222;-50
2020/12/16 02:27:02;;;;;;;19.05;10.57;;;8.40;99.90;;;;;;4955393;28;20219;-51
2020/12/16 02:29:29;;;;;;;14.30;8.70;;;8.50;99.90;;;;;;4955522;28;20656;-54
2020/12/16 02:32:03;;;;;;;15.60;9.20;;;8.50;99.90;;;;;;4955787;28;20246;-52
2020/12/16 02:34:30;;;;;;;13.68;8.70;;;8.50;99.90;;;;;;4955186;28;20195;-52
2020/12/16 02:36:58;;;;;;;13.73;9.73;;;8.50;99.90;;;;;;4972318;28;20229;-55
2020/12/16 02:39:37;;;;;;;16.00;9.35;;;8.50;99.90;;;;;;4955434;28;20191;-54
2020/12/16 02:42:12;;;;;;;16.42;8.88;;;8.60;99.90;;;;;;4955330;28;20541;-55
2020/12/16 02:44:40;;;;;;;17.23;9.98;;;8.60;99.90;;;;;;4954872;28;20310;-50
2020/12/16 02:47:24;;;;;;;16.92;10.10;;;8.60;99.90;;;;;;4954670;28;20262;-55
2020/12/16 02:49:51;;;;;;;14.77;9.88;;;8.60;99.90;;;;;;4972403;28;20195;-51
2020/12/16 02:52:19;;;;;;;15.05;10.20;;;8.60;99.90;;;;;;4972096;28;20696;-55
2020/12/16 02:54:47;;;;;;;11.88;9.48;;;8.60;99.90;;;;;;4972071;28;20194;-52
2020/12/16 02:57:27;;;;;;;19.80;9.88;;;8.60;99.90;;;;;;4972680;28;20196;-50
2020/12/16 03:00:00;;;;;;;16.30;9.38;;;8.60;99.90;;;;;;4954795;28;20594;-55
2020/12/16 03:02:45;;;;;;;12.95;8.73;;;8.60;99.90;;;;;;4971927;28;20198;-51
2020/12/16 03:05:39;;;;;;;20.38;10.45;;;8.70;99.90;;;;;;4942193;28;20230;-52
2020/12/16 03:08:10;;;;;;;15.23;8.77;;;8.70;99.90;;;;;;4955468;28;20223;-56
2020/12/16 03:10:46;;;;;;;12.43;9.63;;;8.70;99.90;;;;;;4954848;28;20718;-57
2020/12/16 03:13:14;;;;;;;21.27;9.70;;;8.70;99.90;;;;;;4955083;28;20206;-53
2020/12/16 03:15:41;;;;;;;13.90;9.60;;;8.60;99.90;;;;;;4954902;28;20219;-54
2020/12/16 03:18:09;;;;;;;14.80;8.90;;;8.70;99.90;;;;;;4954540;28;20620;-54
2020/12/16 03:20:36;;;;;;;14.82;10.10;;;8.70;99.90;;;;;;4954225;28;20191;-55
2020/12/16 03:23:05;;;;;;;16.58;10.13;;;8.80;99.90;;;;;;4954220;28;20546;-51
2020/12/16 03:26:04;;;;;;;19.50;10.63;;;8.80;99.90;;;;;;4958500;28;20234;-54
2020/12/16 03:28:56;;;;;;;14.85;8.68;;;8.70;99.90;;;;;;4954509;28;20210;-57
2020/12/16 03:31:46;;;;;;;17.98;10.98;;;8.70;99.90;;;;;;4958379;28;20571;-52
2020/12/16 03:34:52;;;;;;;16.67;8.77;;;8.80;99.90;;;;;;4955891;28;20195;-57
2020/12/16 03:37:22;;;;;;;13.48;9.48;;;8.90;99.90;;;;;;4954554;28;20199;-56
2020/12/16 03:39:50;;;;;;;18.38;9.43;;;8.80;99.90;;;;;;4954327;28;20199;-56
2020/12/16 03:42:23;;;;;;;19.25;11.63;;;8.70;99.90;;;;;;4953855;28;20656;-58
2020/12/16 03:44:51;;;;;;;15.80;10.63;;;8.70;99.90;;;;;;4954256;28;20214;-55
2020/12/16 03:47:19;;;;;;;19.73;13.23;;;8.60;99.90;;;;;;4954440;28;20247;-52
2020/12/16 03:49:49;;;;;;;19.17;10.48;;;8.60;99.90;;;;;;4954462;28;20388;-53
2020/12/16 03:52:16;;;;;;;26.58;15.48;;;8.60;99.90;;;;;;4954188;28;20258;-55
2020/12/16 03:55:01;;;;;;;23.25;10.52;;;8.70;99.90;;;;;;4954085;28;20191;-56
2020/12/16 03:57:48;;;;;;;22.48;10.82;;;8.70;99.90;;;;;;4954441;28;20219;-57
2020/12/16 04:00:41;;;;;;;18.45;10.85;;;8.70;99.90;;;;;;4957904;28;20695;-58
2020/12/16 04:03:10;;;;;;;19.25;12.27;;;8.70;99.90;;;;;;4957900;28;20628;-55
2020/12/16 04:05:51;;;;;;;19.50;9.35;;;8.80;99.90;;;;;;4957846;28;20707;-55
2020/12/16 04:08:20;;;;;;;13.07;9.60;;;8.80;99.90;;;;;;4957576;28;20734;-50
2020/12/16 04:11:15;;;;;;;26.83;13.40;;;8.70;99.90;;;;;;4958577;28;20290;-58
2020/12/16 04:13:47;;;;;;;19.17;11.48;;;8.70;99.90;;;;;;4957592;28;20279;-52
2020/12/16 04:16:17;;;;;;;26.52;13.98;;;8.80;99.90;;;;;;4957640;28;20219;-51
2020/12/16 04:18:49;;;;;;;20.40;11.32;;;8.80;99.90;;;;;;4957776;28;20207;-53
2020/12/16 04:21:17;;;;;;;16.23;10.85;;;8.90;99.90;;;;;;4957704;28;20210;-55
2020/12/16 04:23:45;;;;;;;21.45;10.38;;;8.90;99.90;;;;;;4958088;28;20548;-57
2020/12/16 04:26:24;;;;;;;22.52;11.68;;;8.90;99.90;;;;;;4957645;28;20225;-56
2020/12/16 04:28:55;;;;;;;24.70;11.60;;;8.90;99.90;;;;;;4957705;28;20191;-54
2020/12/16 04:31:23;;;;;;;12.65;8.82;;;8.90;99.90;;;;;;4974518;28;20687;-55
2020/12/16 04:33:52;;;;;;;20.33;10.65;;;8.90;99.90;;;;;;4957708;28;20194;-58
2020/12/16 04:36:19;;;;;;;18.67;11.90;;;8.90;99.90;;;;;;4958065;28;20215;-56
2020/12/16 04:38:47;;;;;;;18.35;10.02;;;8.80;99.90;;;;;;4957590;28;20573;-52
2020/12/16 04:41:15;;;;;;;16.52;10.68;;;8.80;99.90;;;;;;4957238;28;20661;-53
2020/12/16 04:43:54;;;;;;;15.38;10.82;;;8.70;99.90;;;;;;4956960;28;20219;-54
2020/12/16 04:46:28;;;;;;;13.60;10.77;;;8.80;99.90;;;;;;4974949;28;20286;-51
2020/12/16 04:48:57;;;;;;;20.35;11.38;;;8.70;99.90;;;;;;4948449;28;20214;-55
2020/12/16 04:51:34;;;;;;;16.55;10.48;;;8.80;99.90;;;;;;4951237;29;20211;-53
2020/12/16 04:54:03;;;;;;;18.75;10.52;;;8.70;99.90;;;;;;4938239;29;20557;-50
2020/12/16 04:56:36;;;;;;;24.98;13.43;;;8.70;99.90;;;;;;4937591;29;20220;-54
2020/12/16 04:59:11;;;;;;;23.05;13.30;;;8.70;99.90;;;;;;4955008;29;20235;-55
2020/12/16 05:01:54;;;;;;;16.65;10.93;;;8.70;99.90;;;;;;4937564;29;20192;-51
2020/12/16 05:04:26;;;;;;;16.15;8.75;;;8.60;99.90;;;;;;4937735;29;20216;-56
2020/12/16 05:06:56;;;;;;;17.20;12.18;;;8.60;99.90;;;;;;4937750;29;20306;-56
2020/12/16 05:09:23;;;;;;;17.40;12.70;;;8.60;99.90;;;;;;4954760;28;20184;-52
2020/12/16 05:11:52;;;;;;;21.58;11.35;;;8.70;99.90;;;;;;4953638;29;20196;-56
2020/12/16 05:14:21;;;;;;;17.65;9.70;;;8.60;99.90;;;;;;4954740;29;20199;-53
2020/12/16 05:17:00;;;;;;;18.80;10.93;;;8.60;99.90;;;;;;4954654;29;20212;-56
2020/12/16 05:19:32;;;;;;;18.13;10.02;;;8.70;99.90;;;;;;4954658;29;20206;-55
2020/12/16 05:22:14;;;;;;;13.40;9.55;;;8.70;99.90;;;;;;4954517;29;20203;-54
2020/12/16 05:24:43;;;;;;;14.13;10.38;;;8.70;99.90;;;;;;4954508;29;20219;-54
2020/12/16 05:27:15;;;;;;;17.92;10.27;;;8.70;99.90;;;;;;4954582;29;20195;-52
2020/12/16 05:29:42;;;;;;;16.33;10.57;;;8.70;99.90;;;;;;4954679;29;20192;-54
2020/12/16 05:32:21;;;;;;;16.48;10.77;;;8.70;99.90;;;;;;4953885;29;20211;-49
2020/12/16 05:34:49;;;;;;;20.60;9.70;;;8.70;99.90;;;;;;4954392;29;20191;-54
2020/12/16 05:37:43;;;;;;;18.77;10.23;;;8.70;99.90;;;;;;4954610;29;20208;-57
2020/12/16 05:40:12;;;;;;;14.52;9.95;;;8.70;99.90;;;;;;4920118;29;20200;-54
2020/12/16 05:42:47;;;;;;;20.05;9.82;;;8.70;99.90;;;;;;4954490;29;20551;-57
2020/12/16 05:45:16;;;;;;;28.95;13.82;;;8.70;99.90;;;;;;4954204;29;20290;-53
2020/12/16 05:48:03;;;;;;;20.20;12.40;;;8.70;99.90;;;;;;4954592;29;20245;-50
2020/12/16 05:50:34;;;;;;;18.52;11.82;;;8.70;99.90;;;;;;4954240;29;20195;-58
2020/12/16 05:53:13;;;;;;;23.85;10.80;;;8.70;99.90;;;;;;4954208;29;20271;-49
2020/12/16 05:55:55;;;;;;;18.98;11.70;;;8.60;99.90;;;;;;4953936;29;20223;-49
2020/12/16 05:58:23;;;;;;;14.05;9.63;;;8.60;99.90;;;;;;4966312;28;20210;-44
2020/12/16 06:00:54;;;;;;;18.98;11.30;;;8.60;99.90;;;;;;4973440;28;20195;-47
2020/12/16 06:03:29;;;;;;;14.55;10.80;;;8.60;99.90;;;;;;4973639;28;20211;-53
2020/12/16 06:05:59;;;;;;;20.70;11.70;;;8.60;99.90;;;;;;4974028;28;20226;-47
2020/12/16 06:08:29;;;;;;;19.60;11.93;;;8.60;99.90;;;;;;4956639;28;20250;-49
2020/12/16 06:10:57;;;;;;;11.93;8.05;;;8.60;99.90;;;;;;4973051;28;20532;-50
2020/12/16 06:13:25;;;;;;;17.52;11.73;;;8.60;99.90;;;;;;4954354;28;20265;-51
2020/12/16 06:15:55;;;;;;;30.00;12.48;;;8.50;99.90;;;;;;4972604;28;20211;-44
2020/12/16 06:18:26;;;;;;;18.73;12.85;;;8.50;99.90;;;;;;4972825;28;20476;-47
2020/12/16 06:20:54;;;;;;;19.15;10.63;;;8.50;99.90;;;;;;4973487;28;20198;-52
2020/12/16 06:23:27;;;;;;;24.27;12.15;;;8.50;99.90;;;;;;4972283;28;20653;-47
2020/12/16 06:26:09;;;;;;;21.02;12.50;;;8.50;99.90;;;;;;4971993;28;20227;-51
2020/12/16 06:28:37;;;;;;;15.52;9.57;;;8.40;99.90;;;;;;4972489;28;20187;-54
2020/12/16 06:31:23;;;;;;;26.23;11.88;;;8.50;99.90;;;;;;4972146;28;20198;-48
2020/12/16 06:33:56;;;;;;;15.25;9.18;;;8.50;99.90;;;;;;4972043;28;20199;-46
2020/12/16 06:36:33;;;;;;;15.75;11.27;;;8.50;99.90;;;;;;4972195;28;20726;-50
2020/12/16 06:39:23;;;;;;;23.80;11.10;;;8.50;99.90;;;;;;4972902;28;20191;-48
2020/12/16 06:42:04;;;;;;;18.10;10.38;;;8.50;99.90;;;;;;4972801;28;20191;-45
2020/12/16 06:48:33;;;;;;;15.73;9.25;;;8.60;99.90;;;;;;4971891;28;20203;-52
2020/12/16 06:51:18;;;;;;;24.25;11.80;;;8.70;99.90;;;;;;4971868;28;20203;-56
2020/12/16 06:53:47;;;;;;;20.73;11.32;;;8.70;99.90;;;;;;4972294;28;20191;-50
2020/12/16 06:56:26;;;;;;;16.05;9.45;;;8.80;99.90;;;;;;4972335;28;20218;-52
2020/12/16 06:58:54;;;;;;;20.33;11.30;;;8.80;99.90;;;;;;4977319;23;20256;-81
2020/12/16 07:01:21;;;;;;;14.05;8.63;;;8.80;99.90;;;;;;4943783;29;20200;-81
2020/12/16 07:03:49;;;;;;;22.02;10.48;;;8.80;99.90;;;;;;4943785;29;20299;-83
2020/12/16 07:06:39;;;;;;;21.02;12.10;;;8.80;99.90;;;;;;4959894;29;20318;-82
2020/12/16 07:09:17;;;;;;;17.13;10.82;;;8.70;99.90;;;;;;4947882;29;20216;-81
2020/12/16 07:11:45;;;;;;;25.27;10.93;;;8.70;99.90;;;;;;4945147;29;20314;-81
2020/12/16 07:14:14;;;;;;;17.08;9.90;;;8.80;99.90;;;;;;4965513;28;20671;-81
2020/12/16 07:16:42;;;;;;;24.50;12.02;;;8.80;99.90;;;;;;4972016;29;20190;-81
2020/12/16 07:19:10;;;;;;;15.07;11.18;;;8.80;99.90;;;;;;4952806;29;20228;-82
2020/12/16 07:21:40;;;;;;;21.48;12.57;;;8.90;99.90;;;;;;4942622;29;20547;-83
2020/12/16 07:24:10;;;;;;;27.60;13.48;;;9.00;99.90;;;;;;4942183;29;20202;-81
2020/12/16 07:26:48;;;;;;;18.02;11.20;;;9.10;99.90;;;;;;4960422;29;20620;-81
2020/12/16 07:29:25;;;;;;;16.60;12.20;;;9.10;99.90;;;;;;4959697;28;20801;-81
2020/12/16 07:31:57;;;;;;;19.27;12.18;;;9.10;99.90;;;;;;4943145;29;20188;-81
2020/12/16 07:34:26;;;;;;;25.20;11.77;;;9.10;99.90;;;;;;4944712;29;20738;-81
2020/12/16 07:36:55;;;;;;;21.70;11.68;;;9.10;99.90;;;;;;4964133;29;20621;-81
2020/12/16 07:39:23;;;;;;;18.02;9.80;;;9.20;99.90;;;;;;4949655;29;20188;-82
2020/12/16 07:41:50;;;;;;;15.40;9.45;;;9.20;99.90;;;;;;4965193;29;20231;-81
2020/12/16 07:44:18;;;;;;;20.25;11.10;;;9.30;99.90;;;;;;4963929;28;20631;-81
2020/12/16 07:46:45;;;;;;;18.13;11.03;;;9.30;99.90;;;;;;4962853;29;20397;-82
2020/12/16 07:49:16;;;;;;;18.88;9.93;;;9.30;99.90;;;;;;4964175;28;20620;-82
2020/12/16 07:51:43;;;;;;;19.75;12.52;;;9.40;99.90;;;;;;4966410;29;20601;-82
2020/12/16 07:54:11;;;;;;;16.92;11.63;;;9.40;99.90;;;;;;4947012;29;20207;-82
2020/12/16 07:56:38;;;;;;;20.02;11.40;;;9.40;99.90;;;;;;4965038;29;20236;-82
2020/12/16 07:59:10;;;;;;;20.30;11.15;;;9.40;99.90;;;;;;4947279;29;20243;-81
2020/12/16 08:01:38;;;;;;;12.98;9.68;;;9.50;99.90;;;;;;4964024;29;20651;-81
2020/12/16 08:04:05;;;;;;;19.08;9.75;;;9.40;99.90;;;;;;4946667;29;20295;-82
2020/12/16 08:06:33;;;;;;;22.73;11.63;;;9.40;99.90;;;;;;4963532;29;20207;-82
2020/12/16 08:09:00;;;;;;;18.27;10.65;;;9.40;99.90;;;;;;4962504;28;20223;-82
2020/12/16 08:11:29;;;;;;;19.42;11.80;;;9.40;99.90;;;;;;4946686;29;20606;-81
2020/12/16 08:14:05;;;;;;;17.50;10.98;;;9.50;99.90;;;;;;4963535;29;20255;-81
2020/12/16 08:16:34;;;;;;;29.98;15.73;;;9.60;99.90;;;;;;4961916;29;20196;-82
2020/12/16 08:19:02;;;;;;;22.67;11.60;;;9.60;99.90;;;;;;4963284;28;20311;-81
2020/12/16 08:21:29;;;;;;;17.95;12.02;;;9.60;99.90;;;;;;4946783;29;20196;-82
2020/12/16 08:23:57;;;;;;;18.83;12.83;;;9.70;99.90;;;;;;4946725;29;20188;-80
2020/12/16 08:26:26;;;;;;;26.05;13.73;;;9.70;99.90;;;;;;4946039;29;20475;-81
2020/12/16 08:28:54;;;;;;;23.00;14.10;;;9.70;99.90;;;;;;4946449;29;20211;-81
2020/12/16 08:31:34;;;;;;;18.60;12.80;;;9.80;99.90;;;;;;4949969;29;20183;-82
2020/12/16 08:34:02;;;;;;;21.80;15.75;;;9.90;99.90;;;;;;4948937;29;20334;-83
2020/12/16 08:36:33;;;;;;;21.27;12.88;;;9.80;99.90;;;;;;4951781;29;20196;-81
2020/12/16 08:39:05;;;;;;;21.27;12.18;;;9.90;99.90;;;;;;4947496;29;20223;-82
2020/12/16 08:41:35;;;;;;;25.05;12.85;;;9.90;99.90;;;;;;4962599;29;20594;-82
2020/12/16 08:44:06;;;;;;;17.40;11.27;;;9.90;99.90;;;;;;4962879;28;20253;-82
2020/12/16 08:46:39;;;;;;;23.52;11.52;;;9.90;99.90;;;;;;4964824;29;20674;-82
2020/12/16 08:49:07;;;;;;;20.90;11.55;;;9.80;99.90;;;;;;4950142;29;20642;-82
2020/12/16 08:51:36;;;;;;;19.10;11.05;;;9.70;99.90;;;;;;4971264;29;20176;-82
2020/12/16 08:54:05;;;;;;;21.67;10.48;;;9.60;99.90;;;;;;4951420;29;20284;-83
2020/12/16 08:56:36;;;;;;;15.95;8.90;;;9.60;99.90;;;;;;4969997;29;20200;-82
2020/12/16 08:59:14;;;;;;;14.90;9.65;;;9.60;99.90;;;;;;4951308;29;20230;-82
2020/12/16 09:01:45;;;;;;;23.23;12.57;;;9.70;99.90;;;;;;4962051;29;20176;-83
2020/12/16 09:04:24;;;;;;;22.20;11.27;;;9.60;99.90;;;;;;4944841;29;20192;-83
2020/12/16 09:07:01;;;;;;;18.70;11.27;;;9.50;99.90;;;;;;4943979;29;20611;-82
2020/12/16 09:09:30;;;;;;;17.83;9.90;;;9.70;99.90;;;;;;4959560;29;20192;-82
2020/12/16 09:11:57;;;;;;;18.50;10.70;;;9.80;99.90;;;;;;4943059;29;20428;-82
2020/12/16 09:14:26;;;;;;;15.88;11.63;;;9.90;99.90;;;;;;4944275;29;20522;-83
2020/12/16 09:16:53;;;;;;;24.10;13.30;;;9.90;99.90;;;;;;4960770;29;20196;-84
2020/12/16 09:19:22;;;;;;;15.05;8.20;;;9.80;99.90;;;;;;4945163;29;20223;-83
2020/12/16 09:22:00;;;;;;;21.25;11.60;;;9.90;99.90;;;;;;4962005;29;20563;-83
2020/12/16 09:24:33;;;;;;;16.67;11.35;;;9.80;99.90;;;;;;4945291;29;20540;-83
2020/12/16 09:27:05;;;;;;;20.80;12.80;;;9.90;99.90;;;;;;4960763;28;20200;-83
2020/12/16 09:29:34;;;;;;;19.23;11.67;;;9.90;99.90;;;;;;4945079;29;20202;-83
2020/12/16 09:32:10;;;;;;;10.45;5.63;;;10.00;99.90;;;;;;4945157;29;20447;-82
2020/12/16 09:34:39;;;;;;;9.35;6.68;;;10.00;99.90;;;;;;4945287;29;20208;-82
2020/12/16 09:37:10;;;;;;;5.40;3.15;;;10.00;99.90;;;;;;4944423;28;20571;-82
2020/12/16 09:39:41;;;;;;;5.23;4.57;;;10.10;99.90;;;;;;4945014;29;20570;-82
2020/12/16 09:42:14;;;;;;;7.27;3.60;;;10.20;99.90;;;;;;4977014;28;20417;-81
2020/12/16 09:44:45;;;;;;;5.03;3.90;;;10.20;99.90;;;;;;4977065;28;20434;-82
2020/12/16 09:47:15;;;;;;;4.95;4.00;;;10.30;99.90;;;;;;4962484;28;20849;-81
2020/12/16 09:49:44;;;;;;;5.67;3.97;;;10.30;99.90;;;;;;4945579;29;20196;-82
2020/12/16 09:52:31;;;;;;;6.05;3.35;;;10.30;99.90;;;;;;4943668;29;20515;-82
2020/12/16 09:55:12;;;;;;;3.90;3.37;;;10.30;99.90;;;;;;4944384;29;20180;-82
2020/12/16 09:57:40;;;;;;;3.60;3.27;;;10.30;99.90;;;;;;4960671;28;20442;-82
2020/12/16 10:00:14;;;;;;;8.00;3.23;;;10.50;99.90;;;;;;4961498;29;20410;-81
2020/12/16 10:02:41;;;;;;;5.80;4.77;;;10.50;99.90;;;;;;4962197;29;20509;-83
2020/12/16 10:05:08;;;;;;;7.40;6.10;;;10.60;99.90;;;;;;4945831;29;20464;-83
2020/12/16 10:07:36;;;;;;;4.30;3.47;;;10.60;99.90;;;;;;4962879;28;20457;-81
2020/12/16 10:10:04;;;;;;;3.50;3.07;;;10.70;99.90;;;;;;4966680;29;20406;-82
2020/12/16 10:16:48;;;;;;;5.70;3.50;;;10.60;99.90;;;;;;4969349;28;20447;-83
2020/12/16 10:19:28;;;;;;;6.00;4.60;;;10.80;99.90;;;;;;4978542;28;20487;-82
2020/12/16 10:22:19;;;;;;;3.97;3.67;;;10.90;99.90;;;;;;4979009;28;20439;-82
2020/12/16 10:34:03;;;;;;;5.63;4.47;;;10.80;99.90;;;;;;4967948;28;20769;-83
2020/12/16 10:36:34;;;;;;;8.20;6.40;;;10.60;99.90;;;;;;4953841;28;20450;-82
2020/12/16 10:39:20;;;;;;;9.27;6.70;;;10.80;99.90;;;;;;4968285;28;20530;-86
2020/12/16 10:41:53;;;;;;;6.97;5.77;;;11.00;99.90;;;;;;4963325;28;20410;-79
2020/12/16 10:44:25;;;;;;;5.33;3.90;;;11.00;1.00;;;;;;4965837;28;20397;-82
2020/12/16 10:46:54;;;;;;;6.83;4.10;;;11.10;1.00;;;;;;4944646;29;20478;-82
2020/12/16 10:57:25;;;;;;;8.53;4.23;;;10.90;39.40;;;;;;4904917;29;20441;-81
2020/12/16 11:00:22;;;;;;;7.77;6.30;;;11.00;1.00;;;;;;4901821;29;20453;-79
2020/12/16 11:03:23;;;;;;;7.97;4.43;;;11.20;1.00;;;;;;4905053;29;20396;-79
2020/12/16 11:05:50;;;;;;;9.23;6.67;;;11.20;1.00;;;;;;4905436;29;20471;-79
2020/12/16 11:08:17;;;;;;;7.17;5.60;;;11.30;1.00;;;;;;4906223;29;20540;-80
2020/12/16 11:10:53;;;;;;;8.47;5.40;;;11.20;1.00;;;;;;4905340;29;20492;-80
2020/12/16 11:13:23;;;;;;;10.40;6.50;;;11.20;1.00;;;;;;4907649;29;20422;-79
2020/12/16 11:15:51;;;;;;;8.80;5.47;;;11.10;1.00;;;;;;4893084;29;20430;-79
2020/12/16 11:18:18;;;;;;;14.57;6.93;;;11.00;99.90;;;;;;4890735;29;20565;-80
2020/12/16 11:20:49;;;;;;;10.43;7.23;;;10.90;99.90;;;;;;4906050;29;20409;-80
2020/12/16 11:23:17;;;;;;;11.37;7.40;;;10.90;99.90;;;;;;4906141;29;20425;-80
2020/12/16 11:25:44;;;;;;;16.40;11.23;;;10.80;99.90;;;;;;4905231;29;20495;-80
2020/12/16 11:28:15;;;;;;;16.93;10.77;;;10.70;99.90;;;;;;4906733;29;20450;-79
2020/12/16 11:30:46;;;;;;;15.47;8.60;;;10.80;99.90;;;;;;4892837;29;20517;-79
2020/12/16 11:33:22;;;;;;;14.47;9.13;;;10.80;99.90;;;;;;4904771;29;20447;-78
2020/12/16 11:35:49;;;;;;;10.80;6.93;;;10.70;99.90;;;;;;4950843;29;20449;-78
2020/12/16 11:38:21;;;;;;;11.40;7.53;;;10.80;99.90;;;;;;4948641;29;20521;-78
2020/12/16 11:40:49;;;;;;;10.60;6.27;;;10.80;99.90;;;;;;4964361;29;20854;-80
2020/12/16 11:43:20;;;;;;;12.67;8.50;;;10.90;99.90;;;;;;4931838;29;20448;-79
2020/12/16 11:45:47;;;;;;;12.20;8.27;;;10.90;99.90;;;;;;4943964;29;20710;-78
2020/12/16 11:48:15;;;;;;;8.80;6.83;;;10.90;99.90;;;;;;4959535;28;20456;-78
2020/12/16 11:50:45;;;;;;;7.53;4.93;;;10.80;99.90;;;;;;4933967;29;20809;-78
2020/12/16 11:53:14;;;;;;;10.13;5.90;;;10.70;99.90;;;;;;4951997;29;20520;-78
2020/12/16 11:55:47;;;;;;;7.20;5.07;;;10.70;99.90;;;;;;4953031;28;20512;-80
2020/12/16 11:58:15;;;;;;;7.90;4.73;;;10.70;99.90;;;;;;4983875;28;20447;-81
2020/12/16 12:00:43;;;;;;;9.47;6.77;;;10.80;99.90;;;;;;4962220;28;20417;-79
2020/12/16 12:03:11;;;;;;;7.17;5.27;;;10.80;99.90;;;;;;4980137;28;20414;-79
2020/12/16 12:05:38;;;;;;;11.57;7.67;;;10.90;99.90;;;;;;4961120;28;20466;-79
2020/12/16 12:08:06;;;;;;;11.90;7.73;;;10.90;99.90;;;;;;4961483;28;20867;-78
2020/12/16 12:10:33;;;;;;;12.10;7.30;;;11.00;99.90;;;;;;4980451;28;20984;-80
2020/12/16 12:13:00;;;;;;;9.30;5.77;;;11.00;99.90;;;;;;4980102;28;20433;-79
2020/12/16 12:15:30;;;;;;;9.27;6.40;;;11.00;99.90;;;;;;4966807;28;20463;-79
2020/12/16 12:18:01;;;;;;;12.90;6.80;;;11.00;99.90;;;;;;4979672;28;20459;-81
2020/12/16 12:20:28;;;;;;;11.10;6.40;;;11.10;99.90;;;;;;4965589;28;20431;-80
2020/12/16 12:22:55;;;;;;;9.20;7.07;;;11.00;99.90;;;;;;4985790;28;20531;-79
2020/12/16 12:25:23;;;;;;;10.27;7.63;;;11.00;99.90;;;;;;4967724;28;20533;-79
2020/12/16 12:27:50;;;;;;;11.87;7.83;;;11.10;99.90;;;;;;4966373;28;20454;-78
2020/12/16 12:30:17;;;;;;;14.40;8.33;;;11.10;99.90;;;;;;4948896;29;20416;-80
2020/12/16 12:32:44;;;;;;;13.57;8.70;;;11.00;99.90;;;;;;4946250;29;20424;-79
2020/12/16 12:35:16;;;;;;;14.37;8.93;;;11.00;99.90;;;;;;4963040;29;20428;-79
2020/12/16 12:37:43;;;;;;;18.67;9.20;;;10.90;99.90;;;;;;4963559;28;20447;-79
2020/12/16 12:40:10;;;;;;;10.10;6.90;;;10.80;99.90;;;;;;4945369;29;20831;-79
2020/12/16 12:42:38;;;;;;;13.60;7.90;;;10.70;99.90;;;;;;4962198;29;20491;-78
2020/12/16 12:45:06;;;;;;;10.50;7.83;;;10.60;99.90;;;;;;4943608;29;20440;-78
2020/12/16 12:47:33;;;;;;;13.23;8.43;;;10.70;99.90;;;;;;4944260;29;20466;-79
2020/12/16 12:50:00;;;;;;;11.97;8.10;;;10.70;99.90;;;;;;4943537;29;20402;-79
2020/12/16 12:52:28;;;;;;;12.33;7.73;;;10.50;99.90;;;;;;4960961;29;20446;-81
2020/12/16 12:54:55;;;;;;;15.10;9.88;;;10.40;99.90;;;;;;4962897;29;20418;-81
2020/12/16 12:57:24;;;;;;;16.63;10.63;;;10.40;99.90;;;;;;4946159;29;20220;-79
2020/12/16 12:59:56;;;;;;;15.13;9.77;;;10.40;99.90;;;;;;4946109;29;20422;-80
2020/12/16 13:02:30;;;;;;;15.07;10.00;;;10.40;99.90;;;;;;4946700;29;20534;-80
2020/12/16 13:04:57;;;;;;;15.02;9.23;;;10.30;99.90;;;;;;4965097;29;20394;-80
2020/12/16 13:07:24;;;;;;;14.55;9.20;;;10.20;99.90;;;;;;4964528;28;20212;-81
2020/12/16 13:09:52;;;;;;;12.73;8.55;;;10.10;99.90;;;;;;4946383;29;20297;-80
2020/12/16 13:12:19;;;;;;;18.45;11.55;;;10.10;99.90;;;;;;4945643;29;20192;-80
2020/12/16 13:14:46;;;;;;;11.85;7.15;;;10.10;99.90;;;;;;4945566;29;20263;-81
2020/12/16 13:17:14;;;;;;;13.65;8.55;;;10.10;99.90;;;;;;4946648;28;20184;-81
2020/12/16 13:19:42;;;;;;;14.55;9.00;;;10.10;99.90;;;;;;4964259;29;20566;-81
2020/12/16 13:22:09;;;;;;;13.90;9.10;;;9.90;99.90;;;;;;4964408;29;20196;-81
2020/12/16 13:24:37;;;;;;;16.13;9.02;;;9.90;99.90;;;;;;4946646;29;20188;-80
2020/12/16 13:27:05;;;;;;;13.48;8.77;;;9.90;99.90;;;;;;4961120;28;20227;-79
2020/12/16 13:29:33;;;;;;;12.40;8.60;;;9.90;99.90;;;;;;4946298;29;20192;-81
2020/12/16 13:32:00;;;;;;;17.98;8.60;;;9.80;99.90;;;;;;4963282;28;20936;-81